sensor_id;sensor_type;location;lat;lon;timestamp;pressure;altitude;pressure_sealevel;temperature
14023;BMP180;7086;48.116;11.580;2022-12-20T00:02:56;95887.00;;;6.80
14023;BMP180;7086;48.116;11.580;2022-12-20T00:06:20;95922.00;;;6.90
14023;BMP180;7086;48.116;11.580;2022-12-20T00:09:08;95936.00;;;6.80
14023;BMP180;7086;48.116;11.580;2022-12-20T00:12:01;95822.00;;;6.90
14023;BMP180;7086;48.116;11.580;2022-12-20T00:49:15;95877.00;;;6.90
14023;BMP180;7086;48.116;11.580;2022-12-20T01:25:31;95899.00;;;6.70
14023;BMP180;7086;48.116;11.580;2022-12-20T01:28:05;95920.00;;;6.70
14023;BMP180;7086;48.116;11.580;2022-12-20T02:01:07;95721.00;;;6.80
14023;BMP180;7086;48.116;11.580;2022-12-20T02:03:37;95905.00;;;6.80
14023;BMP180;7086;48.116;11.580;2022-12-20T02:06:24;95756.00;;;6.90
14023;BMP180;7086;48.116;11.580;2022-12-20T02:09:13;95830.00;;;6.90
14023;BMP180;7086;48.116;11.580;2022-12-20T02:15:47;95748.00;;;6.90
14023;BMP180;7086;48.116;11.580;2022-12-20T02:33:46;95894.00;;;6.90
14023;BMP180;7086;48.116;11.580;2022-12-20T02:44:25;95910.00;;;6.70
14023;BMP180;7086;48.116;11.580;2022-12-20T02:48:06;95773.00;;;7.10
14023;BMP180;7086;48.116;11.580;2022-12-20T02:51:06;95897.00;;;7.10
14023;BMP180;7086;48.116;11.580;2022-12-20T02:54:09;95773.00;;;6.70
14023;BMP180;7086;48.116;11.580;2022-12-20T02:57:07;95867.00;;;7.00
14023;BMP180;7086;48.116;11.580;2022-12-20T03:07:19;95909.00;;;7.10
14023;BMP180;7086;48.116;11.580;2022-12-20T03:10:02;95856.00;;;7.30
14023;BMP180;7086;48.116;11.580;2022-12-20T03:12:37;95705.00;;;7.30
14023;BMP180;7086;48.116;11.580;2022-12-20T03:15:52;95757.00;;;7.40
14023;BMP180;7086;48.116;11.580;2022-12-20T03:18:21;95880.00;;;7.40
14023;BMP180;7086;48.116;11.580;2022-12-20T03:21:00;95908.00;;;7.30
14023;BMP180;7086;48.116;11.580;2022-12-20T03:30:28;95870.00;;;7.50
14023;BMP180;7086;48.116;11.580;2022-12-20T03:32:57;95704.00;;;7.60
14023;BMP180;7086;48.116;11.580;2022-12-20T03:35:28;95741.00;;;7.50
14023;BMP180;7086;48.116;11.580;2022-12-20T03:38:15;95743.00;;;7.70
14023;BMP180;7086;48.116;11.580;2022-12-20T03:40:45;95736.00;;;7.70
14023;BMP180;7086;48.116;11.580;2022-12-20T03:43:17;95858.00;;;7.70
14023;BMP180;7086;48.116;11.580;2022-12-20T03:49:35;95792.00;;;7.70
14023;BMP180;7086;48.116;11.580;2022-12-20T04:00:24;95667.00;;;7.60
14023;BMP180;7086;48.116;11.580;2022-12-20T04:02:54;95764.00;;;7.60
14023;BMP180;7086;48.116;11.580;2022-12-20T04:05:23;95798.00;;;7.60
14023;BMP180;7086;48.116;11.580;2022-12-20T04:07:50;95701.00;;;7.60
14023;BMP180;7086;48.116;11.580;2022-12-20T04:10:18;95798.00;;;7.60
14023;BMP180;7086;48.116;11.580;2022-12-20T04:12:45;95866.00;;;7.60
14023;BMP180;7086;48.116;11.580;2022-12-20T04:15:13;95845.00;;;7.60
14023;BMP180;7086;48.116;11.580;2022-12-20T04:17:40;95847.00;;;7.40
14023;BMP180;7086;48.116;11.580;2022-12-20T04:20:12;95843.00;;;7.60
14023;BMP180;7086;48.116;11.580;2022-12-20T04:22:50;95769.00;;;7.60
14023;BMP180;7086;48.116;11.580;2022-12-20T04:25:19;95815.00;;;7.70
14023;BMP180;7086;48.116;11.580;2022-12-20T04:27:47;95803.00;;;7.70
14023;BMP180;7086;48.116;11.580;2022-12-20T04:30:14;95837.00;;;7.70
14023;BMP180;7086;48.116;11.580;2022-12-20T04:32:42;95823.00;;;7.70
14023;BMP180;7086;48.116;11.580;2022-12-20T04:35:10;95823.00;;;7.70
14023;BMP180;7086;48.116;11.580;2022-12-20T04:37:37;95747.00;;;7.70
14023;BMP180;7086;48.116;11.580;2022-12-20T04:40:08;95766.00;;;7.70
14023;BMP180;7086;48.116;11.580;2022-12-20T04:42:36;95718.00;;;7.70
14023;BMP180;7086;48.116;11.580;2022-12-20T04:45:04;95818.00;;;7.70
14023;BMP180;7086;48.116;11.580;2022-12-20T04:47:32;95855.00;;;7.60
14023;BMP180;7086;48.116;11.580;2022-12-20T04:50:00;95820.00;;;7.60
14023;BMP180;7086;48.116;11.580;2022-12-20T04:52:27;95797.00;;;7.60
14023;BMP180;7086;48.116;11.580;2022-12-20T04:55:13;95828.00;;;7.60
14023;BMP180;7086;48.116;11.580;2022-12-20T04:57:41;95807.00;;;7.60
14023;BMP180;7086;48.116;11.580;2022-12-20T05:00:10;95810.00;;;7.60
14023;BMP180;7086;48.116;11.580;2022-12-20T05:02:41;95808.00;;;7.60
14023;BMP180;7086;48.116;11.580;2022-12-20T05:05:09;95847.00;;;7.60
14023;BMP180;7086;48.116;11.580;2022-12-20T05:07:37;95811.00;;;7.60
14023;BMP180;7086;48.116;11.580;2022-12-20T05:10:06;95756.00;;;7.30
14023;BMP180;7086;48.116;11.580;2022-12-20T05:12:35;95736.00;;;7.60
14023;BMP180;7086;48.116;11.580;2022-12-20T05:15:04;95765.00;;;7.70
14023;BMP180;7086;48.116;11.580;2022-12-20T05:17:32;95735.00;;;7.70
14023;BMP180;7086;48.116;11.580;2022-12-20T05:20:00;95772.00;;;7.70
14023;BMP180;7086;48.116;11.580;2022-12-20T05:22:27;95774.00;;;7.50
14023;BMP180;7086;48.116;11.580;2022-12-20T05:25:12;95754.00;;;7.60
14023;BMP180;7086;48.116;11.580;2022-12-20T05:27:59;95790.00;;;7.60
14023;BMP180;7086;48.116;11.580;2022-12-20T05:30:26;95737.00;;;7.60
14023;BMP180;7086;48.116;11.580;2022-12-20T05:32:54;95790.00;;;7.60
14023;BMP180;7086;48.116;11.580;2022-12-20T05:35:22;95703.00;;;7.60
14023;BMP180;7086;48.116;11.580;2022-12-20T05:37:49;95780.00;;;7.70
14023;BMP180;7086;48.116;11.580;2022-12-20T05:40:17;95781.00;;;7.60
14023;BMP180;7086;48.116;11.580;2022-12-20T05:42:44;95730.00;;;7.70
14023;BMP180;7086;48.116;11.580;2022-12-20T05:45:17;95647.00;;;7.70
14023;BMP180;7086;48.116;11.580;2022-12-20T05:47:44;95655.00;;;7.70
14023;BMP180;7086;48.116;11.580;2022-12-20T05:50:12;95719.00;;;7.60
14023;BMP180;7086;48.116;11.580;2022-12-20T05:52:42;95735.00;;;7.70
14023;BMP180;7086;48.116;11.580;2022-12-20T05:55:09;95758.00;;;7.70
14023;BMP180;7086;48.116;11.580;2022-12-20T05:57:37;95751.00;;;7.60
14023;BMP180;7086;48.116;11.580;2022-12-20T06:00:07;95737.00;;;7.60
14023;BMP180;7086;48.116;11.580;2022-12-20T06:02:38;95733.00;;;7.60
14023;BMP180;7086;48.116;11.580;2022-12-20T06:05:07;95775.00;;;7.60
14023;BMP180;7086;48.116;11.580;2022-12-20T06:07:34;95624.00;;;7.60
14023;BMP180;7086;48.116;11.580;2022-12-20T06:10:02;95750.00;;;7.50
14023;BMP180;7086;48.116;11.580;2022-12-20T06:12:30;95759.00;;;7.30
14023;BMP180;7086;48.116;11.580;2022-12-20T06:14:59;95762.00;;;7.50
14023;BMP180;7086;48.116;11.580;2022-12-20T06:17:27;95751.00;;;7.50
14023;BMP180;7086;48.116;11.580;2022-12-20T06:19:57;95756.00;;;7.50
14023;BMP180;7086;48.116;11.580;2022-12-20T06:22:25;95633.00;;;7.50
14023;BMP180;7086;48.116;11.580;2022-12-20T06:24:53;95677.00;;;7.50
14023;BMP180;7086;48.116;11.580;2022-12-20T06:27:21;95751.00;;;7.60
14023;BMP180;7086;48.116;11.580;2022-12-20T06:29:48;95740.00;;;7.60
14023;BMP180;7086;48.116;11.580;2022-12-20T06:32:19;95748.00;;;7.60
14023;BMP180;7086;48.116;11.580;2022-12-20T06:34:49;95733.00;;;7.60
14023;BMP180;7086;48.116;11.580;2022-12-20T06:37:23;95741.00;;;7.60
14023;BMP180;7086;48.116;11.580;2022-12-20T06:39:51;95701.00;;;7.60
14023;BMP180;7086;48.116;11.580;2022-12-20T06:42:18;95761.00;;;7.60
14023;BMP180;7086;48.116;11.580;2022-12-20T06:44:59;95736.00;;;7.70
14023;BMP180;7086;48.116;11.580;2022-12-20T06:47:27;95682.00;;;7.70
14023;BMP180;7086;48.116;11.580;2022-12-20T06:50:09;95661.00;;;7.70
14023;BMP180;7086;48.116;11.580;2022-12-20T06:52:55;95723.00;;;7.70
14023;BMP180;7086;48.116;11.580;2022-12-20T06:55:23;95766.00;;;7.70
14023;BMP180;7086;48.116;11.580;2022-12-20T06:57:51;95740.00;;;7.70
14023;BMP180;7086;48.116;11.580;2022-12-20T07:00:28;95699.00;;;7.70
14023;BMP180;7086;48.116;11.580;2022-12-20T07:02:57;95741.00;;;7.70
14023;BMP180;7086;48.116;11.580;2022-12-20T07:05:31;95734.00;;;7.70
14023;BMP180;7086;48.116;11.580;2022-12-20T07:08:05;95717.00;;;7.70
14023;BMP180;7086;48.116;11.580;2022-12-20T07:10:35;95746.00;;;7.70
14023;BMP180;7086;48.116;11.580;2022-12-20T07:13:04;95690.00;;;7.70
14023;BMP180;7086;48.116;11.580;2022-12-20T07:15:34;95754.00;;;7.80
14023;BMP180;7086;48.116;11.580;2022-12-20T07:18:02;95688.00;;;7.80
14023;BMP180;7086;48.116;11.580;2022-12-20T07:20:30;95727.00;;;7.80
14023;BMP180;7086;48.116;11.580;2022-12-20T07:23:00;95728.00;;;7.80
14023;BMP180;7086;48.116;11.580;2022-12-20T07:25:31;95751.00;;;7.80
14023;BMP180;7086;48.116;11.580;2022-12-20T07:27:59;95676.00;;;7.70
14023;BMP180;7086;48.116;11.580;2022-12-20T07:30:28;95649.00;;;7.40
14023;BMP180;7086;48.116;11.580;2022-12-20T07:32:59;95720.00;;;7.90
14023;BMP180;7086;48.116;11.580;2022-12-20T07:35:27;95700.00;;;7.90
14023;BMP180;7086;48.116;11.580;2022-12-20T07:37:57;95626.00;;;7.90
14023;BMP180;7086;48.116;11.580;2022-12-20T07:40:33;95756.00;;;7.90
14023;BMP180;7086;48.116;11.580;2022-12-20T07:43:05;95747.00;;;8.00
14023;BMP180;7086;48.116;11.580;2022-12-20T07:45:47;95740.00;;;8.00
14023;BMP180;7086;48.116;11.580;2022-12-20T07:48:29;95699.00;;;8.00
14023;BMP180;7086;48.116;11.580;2022-12-20T07:51:15;95729.00;;;8.10
14023;BMP180;7086;48.116;11.580;2022-12-20T07:54:01;95753.00;;;8.20
14023;BMP180;7086;48.116;11.580;2022-12-20T07:56:51;95747.00;;;8.20
14023;BMP180;7086;48.116;11.580;2022-12-20T07:59:25;95757.00;;;8.30
14023;BMP180;7086;48.116;11.580;2022-12-20T08:01:55;95667.00;;;8.30
14023;BMP180;7086;48.116;11.580;2022-12-20T08:04:26;95762.00;;;8.40
14023;BMP180;7086;48.116;11.580;2022-12-20T08:07:00;95788.00;;;8.50
14023;BMP180;7086;48.116;11.580;2022-12-20T08:09:34;95668.00;;;8.60
14023;BMP180;7086;48.116;11.580;2022-12-20T08:12:17;95735.00;;;8.70
14023;BMP180;7086;48.116;11.580;2022-12-20T08:14:47;95760.00;;;8.80
14023;BMP180;7086;48.116;11.580;2022-12-20T08:17:17;95770.00;;;8.60
14023;BMP180;7086;48.116;11.580;2022-12-20T08:19:59;95736.00;;;8.70
14023;BMP180;7086;48.116;11.580;2022-12-20T08:22:30;95728.00;;;8.60
14023;BMP180;7086;48.116;11.580;2022-12-20T08:25:01;95669.00;;;9.00
14023;BMP180;7086;48.116;11.580;2022-12-20T08:27:55;95706.00;;;9.10
14023;BMP180;7086;48.116;11.580;2022-12-20T08:30:28;95768.00;;;9.10
14023;BMP180;7086;48.116;11.580;2022-12-20T08:32:57;95697.00;;;9.10
14023;BMP180;7086;48.116;11.580;2022-12-20T08:35:26;95637.00;;;9.20
14023;BMP180;7086;48.116;11.580;2022-12-20T08:37:56;95727.00;;;9.20
14023;BMP180;7086;48.116;11.580;2022-12-20T08:40:25;95740.00;;;9.20
14023;BMP180;7086;48.116;11.580;2022-12-20T08:42:58;95717.00;;;9.20
14023;BMP180;7086;48.116;11.580;2022-12-20T08:45:27;95676.00;;;9.10
14023;BMP180;7086;48.116;11.580;2022-12-20T08:48:01;95768.00;;;9.20
14023;BMP180;7086;48.116;11.580;2022-12-20T08:50:29;95660.00;;;9.30
14023;BMP180;7086;48.116;11.580;2022-12-20T08:52:59;95748.00;;;9.30
14023;BMP180;7086;48.116;11.580;2022-12-20T08:55:40;95756.00;;;9.30
14023;BMP180;7086;48.116;11.580;2022-12-20T08:58:12;95744.00;;;9.40
14023;BMP180;7086;48.116;11.580;2022-12-20T09:00:40;95731.00;;;9.40
14023;BMP180;7086;48.116;11.580;2022-12-20T09:03:13;95591.00;;;9.40
14023;BMP180;7086;48.116;11.580;2022-12-20T09:05:54;95659.00;;;9.10
14023;BMP180;7086;48.116;11.580;2022-12-20T09:08:22;95757.00;;;9.50
14023;BMP180;7086;48.116;11.580;2022-12-20T09:11:04;95664.00;;;9.50
14023;BMP180;7086;48.116;11.580;2022-12-20T09:17:17;95749.00;;;9.60
14023;BMP180;7086;48.116;11.580;2022-12-20T09:19:50;95722.00;;;9.70
14023;BMP180;7086;48.116;11.580;2022-12-20T09:22:19;95675.00;;;9.70
14023;BMP180;7086;48.116;11.580;2022-12-20T09:25:02;95736.00;;;9.80
14023;BMP180;7086;48.116;11.580;2022-12-20T09:27:34;95681.00;;;9.90
14023;BMP180;7086;48.116;11.580;2022-12-20T09:30:04;95666.00;;;9.90
14023;BMP180;7086;48.116;11.580;2022-12-20T09:36:06;95705.00;;;10.00
14023;BMP180;7086;48.116;11.580;2022-12-20T09:38:48;95719.00;;;10.10
14023;BMP180;7086;48.116;11.580;2022-12-20T09:41:31;95735.00;;;10.00
14023;BMP180;7086;48.116;11.580;2022-12-20T09:44:19;95705.00;;;10.20
14023;BMP180;7086;48.116;11.580;2022-12-20T09:46:58;95663.00;;;10.20
14023;BMP180;7086;48.116;11.580;2022-12-20T09:49:35;95688.00;;;10.20
14023;BMP180;7086;48.116;11.580;2022-12-20T09:55:39;95694.00;;;10.30
14023;BMP180;7086;48.116;11.580;2022-12-20T09:58:39;95674.00;;;10.30
14023;BMP180;7086;48.116;11.580;2022-12-20T10:01:25;95613.00;;;10.30
14023;BMP180;7086;48.116;11.580;2022-12-20T10:04:19;95679.00;;;10.30
14023;BMP180;7086;48.116;11.580;2022-12-20T10:07:21;95652.00;;;10.30
14023;BMP180;7086;48.116;11.580;2022-12-20T10:13:52;95663.00;;;10.50
14023;BMP180;7086;48.116;11.580;2022-12-20T10:16:38;95661.00;;;10.60
14023;BMP180;7086;48.116;11.580;2022-12-20T10:19:43;95653.00;;;10.70
14023;BMP180;7086;48.116;11.580;2022-12-20T10:22:37;95569.00;;;10.70
14023;BMP180;7086;48.116;11.580;2022-12-20T10:25:23;95652.00;;;10.80
14023;BMP180;7086;48.116;11.580;2022-12-20T10:28:29;95660.00;;;10.90
14023;BMP180;7086;48.116;11.580;2022-12-20T10:31:05;95653.00;;;10.90
14023;BMP180;7086;48.116;11.580;2022-12-20T10:33:35;95624.00;;;11.00
14023;BMP180;7086;48.116;11.580;2022-12-20T10:36:20;95653.00;;;11.10
14023;BMP180;7086;48.116;11.580;2022-12-20T10:38:53;95656.00;;;11.10
14023;BMP180;7086;48.116;11.580;2022-12-20T10:41:48;95606.00;;;11.30
14023;BMP180;7086;48.116;11.580;2022-12-20T10:44:26;95609.00;;;11.40
14023;BMP180;7086;48.116;11.580;2022-12-20T10:51:13;95620.00;;;11.50
14023;BMP180;7086;48.116;11.580;2022-12-20T10:53:59;95617.00;;;11.60
14023;BMP180;7086;48.116;11.580;2022-12-20T10:56:31;95624.00;;;11.70
14023;BMP180;7086;48.116;11.580;2022-12-20T10:59:33;95595.00;;;11.70
14023;BMP180;7086;48.116;11.580;2022-12-20T11:02:33;95550.00;;;11.90
14023;BMP180;7086;48.116;11.580;2022-12-20T11:05:23;95597.00;;;12.00
14023;BMP180;7086;48.116;11.580;2022-12-20T11:12:03;95532.00;;;12.20
14023;BMP180;7086;48.116;11.580;2022-12-20T11:14:41;95569.00;;;12.20
14023;BMP180;7086;48.116;11.580;2022-12-20T11:38:27;95514.00;;;12.50
14023;BMP180;7086;48.116;11.580;2022-12-20T11:41:21;95541.00;;;12.80
14023;BMP180;7086;48.116;11.580;2022-12-20T11:52:00;95530.00;;;13.10
14023;BMP180;7086;48.116;11.580;2022-12-20T11:55:23;95515.00;;;13.20
14023;BMP180;7086;48.116;11.580;2022-12-20T11:58:03;95517.00;;;13.20
14023;BMP180;7086;48.116;11.580;2022-12-20T12:00:53;95422.00;;;13.20
14023;BMP180;7086;48.116;11.580;2022-12-20T12:03:58;95427.00;;;13.30
14023;BMP180;7086;48.116;11.580;2022-12-20T12:06:47;95480.00;;;13.30
14023;BMP180;7086;48.116;11.580;2022-12-20T12:17:47;95466.00;;;13.20
14023;BMP180;7086;48.116;11.580;2022-12-20T12:20:30;95476.00;;;13.10
14023;BMP180;7086;48.116;11.580;2022-12-20T12:23:15;95389.00;;;13.20
14023;BMP180;7086;48.116;11.580;2022-12-20T12:25:47;95496.00;;;13.20
14023;BMP180;7086;48.116;11.580;2022-12-20T12:28:28;95513.00;;;13.20
14023;BMP180;7086;48.116;11.580;2022-12-20T12:31:15;95462.00;;;12.90
14023;BMP180;7086;48.116;11.580;2022-12-20T12:34:19;95469.00;;;13.10
14023;BMP180;7086;48.116;11.580;2022-12-20T12:37:41;95427.00;;;13.10
14023;BMP180;7086;48.116;11.580;2022-12-20T12:44:03;95429.00;;;13.00
14023;BMP180;7086;48.116;11.580;2022-12-20T13:24:29;95464.00;;;12.80
14023;BMP180;7086;48.116;11.580;2022-12-20T13:27:13;95476.00;;;12.70
14023;BMP180;7086;48.116;11.580;2022-12-20T13:33:21;95438.00;;;12.60
14023;BMP180;7086;48.116;11.580;2022-12-20T13:36:30;95425.00;;;12.60
14023;BMP180;7086;48.116;11.580;2022-12-20T14:03:51;95451.00;;;12.50
14023;BMP180;7086;48.116;11.580;2022-12-20T14:06:35;95443.00;;;12.40
14023;BMP180;7086;48.116;11.580;2022-12-20T14:09:53;95409.00;;;12.40
14023;BMP180;7086;48.116;11.580;2022-12-20T14:12:44;95463.00;;;12.40
14023;BMP180;7086;48.116;11.580;2022-12-20T14:18:19;95430.00;;;12.40
14023;BMP180;7086;48.116;11.580;2022-12-20T14:21:19;95421.00;;;12.50
14023;BMP180;7086;48.116;11.580;2022-12-20T14:23:51;95396.00;;;12.60
14023;BMP180;7086;48.116;11.580;2022-12-20T14:29:45;95442.00;;;12.70
14023;BMP180;7086;48.116;11.580;2022-12-20T14:32:30;95416.00;;;12.70
14023;BMP180;7086;48.116;11.580;2022-12-20T19:19:57;95380.00;;;9.40
14023;BMP180;7086;48.116;11.580;2022-12-20T19:22:26;95346.00;;;9.40
14023;BMP180;7086;48.116;11.580;2022-12-20T19:25:18;95337.00;;;9.40
14023;BMP180;7086;48.116;11.580;2022-12-20T19:28:00;95322.00;;;9.30
14023;BMP180;7086;48.116;11.580;2022-12-20T19:30:46;95329.00;;;9.40
14023;BMP180;7086;48.116;11.580;2022-12-20T19:33:31;95354.00;;;9.40
14023;BMP180;7086;48.116;11.580;2022-12-20T19:59:03;95283.00;;;9.30
14023;BMP180;7086;48.116;11.580;2022-12-20T20:01:32;95293.00;;;9.40
14023;BMP180;7086;48.116;11.580;2022-12-20T20:04:03;95280.00;;;9.40
14023;BMP180;7086;48.116;11.580;2022-12-20T20:06:50;95212.00;;;9.40
14023;BMP180;7086;48.116;11.580;2022-12-20T20:09:19;95297.00;;;9.50
14023;BMP180;7086;48.116;11.580;2022-12-20T20:11:49;95222.00;;;9.50
14023;BMP180;7086;48.116;11.580;2022-12-20T20:14:42;95263.00;;;9.50
14023;BMP180;7086;48.116;11.580;2022-12-20T20:17:25;95162.00;;;9.50
14023;BMP180;7086;48.116;11.580;2022-12-20T20:19:57;95264.00;;;9.50
14023;BMP180;7086;48.116;11.580;2022-12-20T20:22:25;95286.00;;;9.40
14023;BMP180;7086;48.116;11.580;2022-12-20T20:27:31;95129.00;;;9.40
14023;BMP180;7086;48.116;11.580;2022-12-20T20:30:02;95316.00;;;9.50
14023;BMP180;7086;48.116;11.580;2022-12-20T20:32:32;95284.00;;;9.50
14023;BMP180;7086;48.116;11.580;2022-12-20T20:35:00;95276.00;;;9.50
14023;BMP180;7086;48.116;11.580;2022-12-20T20:37:28;95284.00;;;9.50
14023;BMP180;7086;48.116;11.580;2022-12-20T20:39:58;95295.00;;;9.60
14023;BMP180;7086;48.116;11.580;2022-12-20T20:42:34;95277.00;;;9.70
14023;BMP180;7086;48.116;11.580;2022-12-20T20:45:07;95297.00;;;9.60
14023;BMP180;7086;48.116;11.580;2022-12-20T22:51:16;95128.00;;;9.50
14023;BMP180;7086;48.116;11.580;2022-12-20T22:53:52;95231.00;;;9.50
14023;BMP180;7086;48.116;11.580;2022-12-20T22:56:34;95219.00;;;9.50
14023;BMP180;7086;48.116;11.580;2022-12-20T22:59:09;95194.00;;;9.60
14023;BMP180;7086;48.116;11.580;2022-12-20T23:01:39;95275.00;;;9.50
14023;BMP180;7086;48.116;11.580;2022-12-20T23:04:25;95176.00;;;9.60
14023;BMP180;7086;48.116;11.580;2022-12-20T23:11:05;95247.00;;;9.60
14023;BMP180;7086;48.116;11.580;2022-12-20T23:13:51;95269.00;;;9.60
14023;BMP180;7086;48.116;11.580;2022-12-20T23:16:37;95258.00;;;9.60
14023;BMP180;7086;48.116;11.580;2022-12-20T23:19:21;95139.00;;;9.60
14023;BMP180;7086;48.116;11.580;2022-12-20T23:22:22;95278.00;;;9.60
14023;BMP180;7086;48.116;11.580;2022-12-20T23:25:29;95196.00;;;9.30
14023;BMP180;7086;48.116;11.580;2022-12-20T23:28:49;95139.00;;;9.60
14023;BMP180;7086;48.116;11.580;2022-12-20T23:31:32;95261.00;;;9.60
14023;BMP180;7086;48.116;11.580;2022-12-20T23:34:15;95272.00;;;9.60
